createdAt,value
2022-08-28T00:02:24.034Z,10.10
2022-08-28T00:05:31.334Z,10.60
2022-08-28T00:08:34.636Z,9.80
2022-08-28T00:11:37.856Z,11.40
2022-08-28T00:14:40.978Z,11.20
2022-08-28T00:17:44.052Z,11.60
2022-08-28T00:20:47.848Z,10.80
2022-08-28T00:23:51.094Z,10.00
2022-08-28T00:27:32.481Z,10.70
2022-08-28T00:30:40.203Z,11.00
2022-08-28T00:33:43.386Z,10.90
2022-08-28T00:36:46.249Z,11.10
2022-08-28T00:39:49.419Z,10.70
2022-08-28T00:42:52.314Z,9.60
2022-08-28T00:45:55.195Z,10.10
2022-08-28T00:48:58.119Z,10.40
2022-08-28T00:52:12.537Z,10.40
2022-08-28T00:55:19.203Z,10.50
2022-08-28T00:58:22.293Z,10.30
2022-08-28T01:01:25.324Z,10.20
2022-08-28T01:04:32.366Z,11.50
2022-08-28T01:07:38.228Z,10.20
2022-08-28T01:10:45.880Z,9.50
2022-08-28T01:13:51.266Z,10.00
2022-08-28T01:16:58.034Z,11.30
2022-08-28T01:20:06.973Z,10.80
2022-08-28T01:23:23.645Z,11.40
2022-08-28T01:26:28.382Z,12.50
2022-08-28T01:29:31.577Z,12.10
2022-08-28T01:32:38.471Z,14.00
2022-08-28T01:35:44.755Z,12.20
2022-08-28T01:38:50.541Z,11.40
2022-08-28T01:41:55.964Z,11.50
2022-08-28T01:44:59.236Z,11.00
2022-08-28T01:48:02.337Z,11.60
2022-08-28T01:51:06.485Z,11.50
2022-08-28T01:54:10.733Z,10.80
2022-08-28T01:57:14.982Z,11.60
2022-08-28T02:00:28.814Z,11.60
2022-08-28T02:03:33.518Z,10.60
2022-08-28T02:06:37.928Z,10.00
2022-08-28T02:09:41.266Z,11.10
2022-08-28T02:12:44.210Z,10.70
2022-08-28T02:15:47.223Z,11.10
2022-08-28T02:18:50.165Z,10.50
2022-08-28T02:21:53.118Z,10.00
2022-08-28T02:24:56.011Z,10.00
2022-08-28T02:27:59.500Z,9.70
2022-08-28T02:31:02.687Z,9.90
2022-08-28T02:34:06.030Z,10.20
2022-08-28T02:37:11.450Z,10.10
2022-08-28T02:40:16.778Z,10.30
2022-08-28T02:43:19.803Z,12.70
2022-08-28T02:46:23.295Z,13.70
2022-08-28T02:49:26.660Z,13.20
2022-08-28T02:52:43.982Z,12.30
2022-08-28T02:55:46.838Z,11.80
2022-08-28T02:58:49.660Z,11.10
2022-08-28T03:01:53.361Z,10.80
2022-08-28T03:04:56.308Z,11.30
2022-08-28T03:07:59.814Z,10.90
2022-08-28T03:11:02.688Z,10.50
2022-08-28T03:14:05.595Z,11.10
2022-08-28T03:17:08.654Z,11.00
2022-08-28T03:20:13.557Z,11.70
2022-08-28T03:23:28.430Z,10.70
2022-08-28T03:26:31.546Z,11.20
2022-08-28T03:29:35.765Z,11.40
2022-08-28T03:32:38.639Z,10.50
2022-08-28T03:35:41.587Z,11.10
2022-08-28T03:38:45.018Z,11.50
2022-08-28T03:41:47.913Z,11.50
2022-08-28T03:44:51.550Z,11.70
2022-08-28T03:47:54.428Z,11.80
2022-08-28T03:50:58.454Z,11.20
2022-08-28T03:54:02.412Z,11.50
2022-08-28T03:57:05.288Z,11.50
2022-08-28T04:00:12.310Z,11.10
2022-08-28T04:03:15.552Z,11.00
2022-08-28T04:06:21.044Z,11.50
2022-08-28T04:09:24.116Z,10.80
2022-08-28T04:12:27.068Z,10.60
2022-08-28T04:15:30.513Z,11.40
2022-08-28T04:18:34.025Z,11.60
2022-08-28T04:21:36.951Z,11.70
2022-08-28T04:24:39.828Z,11.00
2022-08-28T04:27:42.832Z,12.70
2022-08-28T04:30:46.414Z,16.00
2022-08-28T04:33:49.317Z,16.60
2022-08-28T04:36:52.763Z,15.50
2022-08-28T04:39:56.117Z,14.60
2022-08-28T04:42:59.088Z,15.50
2022-08-28T04:46:08.077Z,15.40
2022-08-28T04:49:12.192Z,14.20
2022-08-28T04:52:15.184Z,14.30
2022-08-28T04:55:18.210Z,13.90
2022-08-28T04:58:34.419Z,14.30
2022-08-28T05:01:37.498Z,13.80
2022-08-28T05:04:40.990Z,13.80
2022-08-28T05:07:44.998Z,14.00
2022-08-28T05:10:48.832Z,13.40
2022-08-28T05:13:52.786Z,12.40
2022-08-28T05:16:57.854Z,13.10
2022-08-28T05:20:00.743Z,13.80
2022-08-28T05:23:04.973Z,14.60
2022-08-28T05:26:12.620Z,13.70
2022-08-28T05:29:16.919Z,13.30
2022-08-28T05:32:20.839Z,13.40
2022-08-28T05:35:24.973Z,14.10
2022-08-28T05:38:28.633Z,13.70
2022-08-28T05:41:32.383Z,14.30
2022-08-28T05:44:35.323Z,14.00
2022-08-28T05:47:39.043Z,14.20
2022-08-28T05:50:47.341Z,14.20
2022-08-28T05:53:51.743Z,14.80
2022-08-28T05:56:54.908Z,14.50
2022-08-28T05:59:57.757Z,14.90
2022-08-28T06:03:00.598Z,14.50
2022-08-28T06:06:04.513Z,14.80
2022-08-28T06:09:13.489Z,15.90
2022-08-28T06:12:16.763Z,14.60
2022-08-28T06:15:20.960Z,14.80
2022-08-28T06:18:25.540Z,15.30
2022-08-28T06:21:29.481Z,16.20
2022-08-28T06:24:34.035Z,14.80
2022-08-28T06:27:39.348Z,14.70
2022-08-28T06:30:57.351Z,15.20
2022-08-28T06:34:06.740Z,14.00
2022-08-28T06:37:10.375Z,14.00
2022-08-28T06:40:14.213Z,13.30
2022-08-28T06:43:18.532Z,14.60
2022-08-28T06:46:22.005Z,14.90
2022-08-28T06:49:25.256Z,15.00
2022-08-28T06:52:28.151Z,15.40
2022-08-28T06:55:31.006Z,15.10
2022-08-28T06:58:40.704Z,16.50
2022-08-28T07:01:43.619Z,15.30
2022-08-28T07:04:50.369Z,15.60
2022-08-28T07:07:53.521Z,15.20
2022-08-28T07:10:58.548Z,16.00
2022-08-28T07:14:02.247Z,16.80
2022-08-28T07:17:07.351Z,16.20
2022-08-28T07:20:11.563Z,15.00
2022-08-28T07:23:14.471Z,16.20
2022-08-28T07:26:20.886Z,15.10
2022-08-28T07:29:23.871Z,16.50
2022-08-28T07:32:26.923Z,16.00
2022-08-28T07:35:29.841Z,17.00
2022-08-28T07:38:32.807Z,17.20
2022-08-28T07:41:39.339Z,14.90
2022-08-28T07:44:51.159Z,16.80
2022-08-28T07:47:54.058Z,16.70
2022-08-28T07:50:57.113Z,17.30
2022-08-28T07:54:00.026Z,19.50
2022-08-28T07:57:04.567Z,19.90
2022-08-28T08:00:08.224Z,18.40
2022-08-28T08:03:15.060Z,15.70
2022-08-28T08:06:17.982Z,19.00
2022-08-28T08:09:21.307Z,19.40
2022-08-28T08:12:25.157Z,17.40
2022-08-28T08:15:34.059Z,16.40
2022-08-28T08:18:38.092Z,17.60
2022-08-28T08:21:43.574Z,19.80
2022-08-28T08:24:46.409Z,18.50
2022-08-28T08:27:50.817Z,17.20
2022-08-28T08:31:14.789Z,18.50
2022-08-28T08:34:17.654Z,18.70
2022-08-28T08:37:20.612Z,18.50
2022-08-28T08:40:23.690Z,20.40
2022-08-28T08:43:29.623Z,18.70
2022-08-28T08:46:41.166Z,18.30
2022-08-28T08:49:57.253Z,17.30
2022-08-28T08:53:24.589Z,18.40
2022-08-28T08:56:35.036Z,15.70
2022-08-28T08:59:40.030Z,15.40
2022-08-28T09:03:02.635Z,13.70
2022-08-28T09:06:10.745Z,12.70
2022-08-28T09:09:35.220Z,13.30
2022-08-28T09:13:15.871Z,14.60
2022-08-28T09:16:32.457Z,13.50
2022-08-28T09:19:35.519Z,13.40
2022-08-28T09:22:43.763Z,14.90
2022-08-28T09:25:51.949Z,13.80
2022-08-28T09:29:16.694Z,14.40
2022-08-28T09:32:19.636Z,13.40
2022-08-28T09:35:34.672Z,13.00
2022-08-28T09:38:39.113Z,14.40
2022-08-28T09:42:14.226Z,13.80
2022-08-28T09:45:23.037Z,14.90
2022-08-28T09:48:43.885Z,14.80
2022-08-28T09:51:46.756Z,14.90
2022-08-28T09:54:50.999Z,15.30
2022-08-28T09:57:55.820Z,14.60
2022-08-28T10:01:08.492Z,16.00
2022-08-28T10:04:38.271Z,15.50
2022-08-28T10:08:04.527Z,16.80
2022-08-28T10:11:31.895Z,18.00
2022-08-28T10:14:43.779Z,17.90
2022-08-28T10:18:07.664Z,18.60
2022-08-28T10:21:13.440Z,20.20
2022-08-28T10:24:43.129Z,19.80
2022-08-28T10:27:55.912Z,19.10
2022-08-28T10:31:23.079Z,21.00
2022-08-28T10:34:44.431Z,20.70
2022-08-28T10:37:59.721Z,19.60
2022-08-28T10:41:10.333Z,19.20
2022-08-28T10:44:20.054Z,19.10
2022-08-28T10:47:25.735Z,19.00
2022-08-28T10:50:47.075Z,18.00
2022-08-28T10:53:58.351Z,17.70
2022-08-28T10:57:19.767Z,19.60
2022-08-28T11:00:25.176Z,18.50
2022-08-28T11:03:35.423Z,18.50
2022-08-28T11:06:47.980Z,18.50
2022-08-28T11:09:51.087Z,17.90
2022-08-28T11:12:54.047Z,17.60
2022-08-28T11:15:57.070Z,17.00
2022-08-28T11:19:20.180Z,16.60
2022-08-28T11:22:34.958Z,16.00
2022-08-28T11:25:50.227Z,15.20
2022-08-28T11:28:53.278Z,15.90
2022-08-28T11:32:31.798Z,13.90
2022-08-28T11:35:49.962Z,14.20
2022-08-28T11:38:55.771Z,15.20
2022-08-28T11:42:10.900Z,16.00
2022-08-28T11:45:42.564Z,15.50
2022-08-28T11:48:54.913Z,14.60
2022-08-28T11:52:05.250Z,14.50
2022-08-28T11:55:25.334Z,14.90
2022-08-28T11:59:02.170Z,15.40
2022-08-28T12:02:34.156Z,15.00
2022-08-28T12:05:46.115Z,14.70
2022-08-28T12:08:49.035Z,14.20
2022-08-28T12:12:00.813Z,13.10
2022-08-28T12:15:08.497Z,12.80
2022-08-28T12:18:11.740Z,13.20
2022-08-28T12:21:20.969Z,12.90
2022-08-28T12:24:24.630Z,11.40
2022-08-28T12:27:29.452Z,11.40
2022-08-28T12:30:41.661Z,12.20
2022-08-28T12:33:57.589Z,11.60
2022-08-28T12:37:02.867Z,11.60
2022-08-28T12:40:08.893Z,11.60
2022-08-28T12:43:15.330Z,11.90
2022-08-28T12:46:25.838Z,10.80
2022-08-28T12:49:36.120Z,11.40
2022-08-28T12:52:48.572Z,10.50
2022-08-28T12:55:51.887Z,10.10
2022-08-28T12:58:55.000Z,10.50
2022-08-28T13:02:12.291Z,10.70
2022-08-28T13:05:39.695Z,11.50
2022-08-28T13:08:42.721Z,10.70
2022-08-28T13:11:49.183Z,11.70
2022-08-28T13:14:52.570Z,11.50
2022-08-28T13:17:55.726Z,11.80
2022-08-28T13:21:33.233Z,11.40
2022-08-28T13:24:42.463Z,12.10
2022-08-28T13:27:45.634Z,11.20
2022-08-28T13:30:58.352Z,13.30
2022-08-28T13:34:16.472Z,12.40
2022-08-28T13:37:41.015Z,10.00
2022-08-28T13:40:59.426Z,5.40
2022-08-28T13:44:02.768Z,4.70
2022-08-28T13:47:07.119Z,3.40
2022-08-28T13:50:10.012Z,3.60
2022-08-28T13:53:13.638Z,4.00
2022-08-28T13:56:17.303Z,3.70
2022-08-28T13:59:20.769Z,4.40
2022-08-28T14:02:42.212Z,4.30
2022-08-28T14:05:45.284Z,4.90
2022-08-28T14:08:48.146Z,6.10
2022-08-28T14:11:51.037Z,6.50
2022-08-28T14:14:54.002Z,6.60
2022-08-28T14:17:57.518Z,7.40
2022-08-28T14:21:00.588Z,6.80
2022-08-28T14:24:04.432Z,6.80
2022-08-28T14:27:07.582Z,6.70
2022-08-28T14:30:11.431Z,6.50
2022-08-28T14:33:16.967Z,6.40
2022-08-28T14:36:26.538Z,6.80
2022-08-28T14:39:31.070Z,7.40
2022-08-28T14:42:34.372Z,6.30
2022-08-28T14:45:49.652Z,6.70
2022-08-28T14:48:52.641Z,6.10
2022-08-28T14:51:57.069Z,5.30
2022-08-28T14:54:59.999Z,5.30
2022-08-28T14:58:02.951Z,6.40
2022-08-28T15:01:06.265Z,5.80
2022-08-28T15:04:15.953Z,7.20
2022-08-28T15:07:21.283Z,6.80
2022-08-28T15:10:24.610Z,8.00
2022-08-28T15:13:31.421Z,7.90
2022-08-28T15:16:39.253Z,8.30
2022-08-28T15:19:42.326Z,8.10
2022-08-28T15:22:45.305Z,8.60
2022-08-28T15:25:48.820Z,7.90
2022-08-28T15:28:55.736Z,8.30
2022-08-28T15:31:59.128Z,9.00
2022-08-28T15:35:02.347Z,9.10
2022-08-28T15:38:07.148Z,9.50
2022-08-28T15:41:24.968Z,9.50
2022-08-28T15:44:28.200Z,9.50
2022-08-28T15:47:31.162Z,8.70
2022-08-28T15:50:34.501Z,8.80
2022-08-28T15:53:38.172Z,8.70
2022-08-28T15:56:41.737Z,9.40
2022-08-28T15:59:49.722Z,7.90
2022-08-28T16:02:59.834Z,8.00
2022-08-28T16:06:04.218Z,7.60
2022-08-28T16:09:09.648Z,7.50
2022-08-28T16:12:12.729Z,7.70
2022-08-28T16:15:20.680Z,7.20
2022-08-28T16:18:24.186Z,7.00
2022-08-28T16:21:28.149Z,7.10
2022-08-28T16:24:31.188Z,6.90
2022-08-28T16:27:34.223Z,6.90
2022-08-28T16:30:43.983Z,7.50
2022-08-28T16:33:48.058Z,7.10
2022-08-28T16:36:50.965Z,6.50
2022-08-28T16:39:55.004Z,6.30
2022-08-28T16:42:58.178Z,6.60
2022-08-28T16:46:01.015Z,7.00
2022-08-28T16:49:06.207Z,7.30
2022-08-28T16:52:10.215Z,7.30
2022-08-28T16:55:14.962Z,6.40
2022-08-28T16:58:18.307Z,6.80
2022-08-28T17:01:23.929Z,7.00
2022-08-28T17:04:27.436Z,7.40
2022-08-28T17:07:30.778Z,7.90
2022-08-28T17:10:35.909Z,7.20
2022-08-28T17:13:39.939Z,7.80
2022-08-28T17:16:43.175Z,6.70
2022-08-28T17:19:46.565Z,7.30
2022-08-28T17:22:49.960Z,7.90
2022-08-28T17:25:52.909Z,7.20
2022-08-28T17:28:55.860Z,7.20
2022-08-28T17:31:59.272Z,4.50
2022-08-28T17:35:02.537Z,4.50
2022-08-28T17:38:05.482Z,4.50
2022-08-28T17:41:09.171Z,4.60
2022-08-28T17:44:12.587Z,4.30
2022-08-28T17:47:15.801Z,4.50
2022-08-28T17:50:18.888Z,4.20
2022-08-28T17:53:27.177Z,4.90
2022-08-28T17:56:36.156Z,4.70
2022-08-28T17:59:39.757Z,5.20
2022-08-28T18:02:44.754Z,4.00
2022-08-28T18:05:47.671Z,4.30
2022-08-28T18:08:51.976Z,4.60
2022-08-28T18:11:55.409Z,4.00
2022-08-28T18:15:01.748Z,4.10
2022-08-28T18:18:04.961Z,5.10
2022-08-28T18:21:13.192Z,5.20
2022-08-28T18:24:17.577Z,5.20
2022-08-28T18:27:22.495Z,5.00
2022-08-28T18:30:26.003Z,5.40
2022-08-28T18:33:31.359Z,5.20
2022-08-28T18:36:36.641Z,4.70
2022-08-28T18:39:40.219Z,4.90
2022-08-28T18:42:45.739Z,5.10
2022-08-28T18:45:49.228Z,5.20
2022-08-28T18:48:54.783Z,5.30
2022-08-28T18:51:58.782Z,4.30
2022-08-28T18:55:05.202Z,4.40
2022-08-28T18:58:11.135Z,4.70
2022-08-28T19:01:18.904Z,4.90
2022-08-28T19:04:22.435Z,4.70
2022-08-28T19:07:25.443Z,4.20
2022-08-28T19:10:33.855Z,4.30
2022-08-28T19:13:38.930Z,4.20
2022-08-28T19:16:42.837Z,3.30
2022-08-28T19:19:46.075Z,3.30
2022-08-28T19:22:49.527Z,3.20
2022-08-28T19:25:52.937Z,3.30
2022-08-28T19:28:57.313Z,3.10
2022-08-28T19:32:00.718Z,3.00
2022-08-28T19:35:04.179Z,3.10
2022-08-28T19:38:07.196Z,3.90
2022-08-28T19:41:12.036Z,3.10
2022-08-28T19:44:15.203Z,3.40
2022-08-28T19:47:19.541Z,3.70
2022-08-28T19:50:22.527Z,3.80
2022-08-28T19:53:25.829Z,4.20
2022-08-28T19:56:31.639Z,4.20
2022-08-28T19:59:35.711Z,3.80
2022-08-28T20:02:38.747Z,4.40
2022-08-28T20:05:41.871Z,4.00
2022-08-28T20:08:44.822Z,4.10
2022-08-28T20:11:49.135Z,4.20
2022-08-28T20:14:52.341Z,4.10
2022-08-28T20:17:55.683Z,4.20
2022-08-28T20:20:58.529Z,4.50
2022-08-28T20:24:01.945Z,4.10
2022-08-28T20:27:06.539Z,4.10
2022-08-28T20:30:11.489Z,3.70
2022-08-28T20:33:14.472Z,4.20
2022-08-28T20:36:21.370Z,3.90
2022-08-28T20:39:24.726Z,3.70
2022-08-28T20:42:31.778Z,4.70
2022-08-28T20:45:34.978Z,3.80
2022-08-28T20:48:38.508Z,3.90
2022-08-28T20:52:15.952Z,3.90
2022-08-28T20:55:19.001Z,4.20
2022-08-28T20:58:23.006Z,4.40
2022-08-28T21:01:25.910Z,4.30
2022-08-28T21:04:30.380Z,4.90
2022-08-28T21:07:35.277Z,4.40
2022-08-28T21:10:40.584Z,4.60
2022-08-28T21:13:43.578Z,4.30
2022-08-28T21:16:47.043Z,5.00
2022-08-28T21:19:50.908Z,6.00
2022-08-28T21:22:53.873Z,6.00
2022-08-28T21:25:56.783Z,6.80
2022-08-28T21:28:59.725Z,7.10
2022-08-28T21:32:03.035Z,6.80
2022-08-28T21:35:08.109Z,6.80
2022-08-28T21:38:11.148Z,5.40
2022-08-28T21:41:15.227Z,4.50
2022-08-28T21:44:18.840Z,5.60
2022-08-28T21:47:23.659Z,5.90
2022-08-28T21:50:29.529Z,5.60
2022-08-28T21:53:32.891Z,6.20
2022-08-28T21:56:35.833Z,6.10
2022-08-28T21:59:39.093Z,6.60
2022-08-28T22:02:42.197Z,7.10
2022-08-28T22:05:47.284Z,7.10
2022-08-28T22:08:51.053Z,7.50
2022-08-28T22:11:54.015Z,7.30
2022-08-28T22:14:57.015Z,7.80
2022-08-28T22:18:00.642Z,7.70
2022-08-28T22:21:22.796Z,7.80
2022-08-28T22:24:25.709Z,8.00
2022-08-28T22:27:29.206Z,8.50
2022-08-28T22:30:33.574Z,8.60
2022-08-28T22:33:38.076Z,8.00
2022-08-28T22:36:41.014Z,8.80
2022-08-28T22:39:44.116Z,8.80
2022-08-28T22:42:47.589Z,8.80
2022-08-28T22:45:50.627Z,8.70
2022-08-28T22:48:53.876Z,8.60
2022-08-28T22:51:56.833Z,8.60
2022-08-28T22:54:59.705Z,9.10
2022-08-28T22:58:03.524Z,7.90
2022-08-28T23:01:11.162Z,8.60
2022-08-28T23:04:16.161Z,10.30
2022-08-28T23:07:19.149Z,9.60
2022-08-28T23:10:36.748Z,10.10
2022-08-28T23:13:45.688Z,10.10
2022-08-28T23:16:49.360Z,9.80
2022-08-28T23:19:53.264Z,10.70
2022-08-28T23:22:58.272Z,10.50
2022-08-28T23:26:01.546Z,10.40
2022-08-28T23:29:05.190Z,10.20
2022-08-28T23:32:08.223Z,10.00
2022-08-28T23:35:14.926Z,10.00
2022-08-28T23:38:17.925Z,9.40
2022-08-28T23:41:20.865Z,10.10
2022-08-28T23:44:25.040Z,10.00
2022-08-28T23:47:29.390Z,9.80
2022-08-28T23:50:33.002Z,10.50
2022-08-28T23:53:36.642Z,10.60
2022-08-28T23:56:39.756Z,10.00
2022-08-28T23:59:43.969Z,9.20
